Time,TemperatureF,DewpointF,PressureIn,WindDirection,WindDirectionDegrees,WindSpeedMPH,WindSpeedGustMPH,Humidity,HourlyPrecipIn,Conditions,Clouds,dailyrainin,SoftwareType,DateUTC
2013-02-01 00:04:00,18.0,15.0,29.47,WSW,247,5.0,12.0,92,0.00,,,0.00,TxWx,2013-02-01 05:04:00,
2013-02-01 00:09:00,19.0,16.0,29.47,WSW,247,12.0,13.0,91,0.00,,,0.00,TxWx,2013-02-01 05:09:00,
2013-02-01 00:14:00,19.0,16.0,29.47,West,270,8.0,9.0,91,0.00,,,0.00,TxWx,2013-02-01 05:14:00,
2013-02-01 00:19:00,20.0,16.0,29.47,WSW,247,14.0,16.0,89,0.00,,,0.00,TxWx,2013-02-01 05:19:00,
2013-02-01 00:24:00,20.0,16.0,29.47,WSW,247,17.0,28.0,89,0.00,,,0.00,TxWx,2013-02-01 05:24:00,
2013-02-01 00:32:00,19.0,15.0,29.47,SSW,202,19.0,21.0,88,0.00,,,0.00,TxWx,2013-02-01 05:32:00,
2013-02-01 00:38:00,19.0,15.0,29.47,WSW,247,14.0,21.0,87,0.00,,,0.00,TxWx,2013-02-01 05:38:00,
2013-02-01 00:43:00,19.0,15.0,29.47,SW,225,16.0,23.0,87,0.00,,,0.00,TxWx,2013-02-01 05:43:00,
2013-02-01 00:48:00,19.0,15.0,29.47,SW,225,8.0,8.0,87,0.00,,,0.00,TxWx,2013-02-01 05:48:00,
2013-02-01 00:53:00,19.0,15.0,29.47,SW,225,11.0,17.0,87,0.00,,,0.00,TxWx,2013-02-01 05:53:00,
2013-02-01 00:58:00,19.0,14.0,29.47,SW,225,7.0,15.0,86,0.00,,,0.00,TxWx,2013-02-01 05:58:00,
2013-02-01 01:03:00,19.0,14.0,29.47,SW,225,13.0,14.0,84,0.00,,,0.00,TxWx,2013-02-01 06:03:00,
2013-02-01 01:08:00,20.0,15.0,29.47,SSW,202,17.0,26.0,83,0.00,,,0.00,TxWx,2013-02-01 06:08:00,
2013-02-01 01:13:00,20.0,14.0,29.47,WSW,247,13.0,16.0,82,0.00,,,0.00,TxWx,2013-02-01 06:13:00,
2013-02-01 01:18:00,19.0,13.0,29.48,SW,225,14.0,16.0,82,0.00,,,0.00,TxWx,2013-02-01 06:18:00,
2013-02-01 01:23:00,19.0,13.0,29.48,SW,225,10.0,13.0,82,0.00,,,0.00,TxWx,2013-02-01 06:23:00,
2013-02-01 01:28:00,20.0,14.0,29.48,SW,225,9.0,9.0,82,0.00,,,0.00,TxWx,2013-02-01 06:28:00,
2013-02-01 01:33:00,20.0,14.0,29.48,SW,225,15.0,23.0,81,0.00,,,0.00,TxWx,2013-02-01 06:33:00,
2013-02-01 01:38:00,20.0,14.0,29.48,WSW,247,14.0,14.0,80,0.00,,,0.00,TxWx,2013-02-01 06:38:00,
2013-02-01 01:44:00,20.0,13.0,29.48,SW,225,18.0,19.0,81,0.00,,,0.00,TxWx,2013-02-01 06:44:00,
2013-02-01 01:49:00,19.0,13.0,29.49,SW,225,20.0,20.0,81,0.00,,,0.00,TxWx,2013-02-01 06:49:00,
2013-02-01 01:54:00,20.0,14.0,29.48,SSW,202,13.0,16.0,80,0.00,,,0.00,TxWx,2013-02-01 06:54:00,
2013-02-01 01:59:00,20.0,13.0,29.49,WSW,247,19.0,24.0,78,0.00,,,0.00,TxWx,2013-02-01 06:59:00,
2013-02-01 02:04:00,20.0,13.0,29.49,SW,225,23.0,24.0,76,0.00,,,0.00,TxWx,2013-02-01 07:04:00,
2013-02-01 02:09:00,20.0,12.0,29.49,SW,225,13.0,25.0,75,0.00,,,0.00,TxWx,2013-02-01 07:09:00,
2013-02-01 02:14:00,19.0,11.0,29.49,WSW,247,14.0,17.0,74,0.00,,,0.00,TxWx,2013-02-01 07:14:00,
2013-02-01 02:19:00,19.0,11.0,29.49,SW,225,12.0,20.0,75,0.00,,,0.00,TxWx,2013-02-01 07:19:00,
2013-02-01 02:24:00,20.0,12.0,29.49,SSW,202,16.0,22.0,75,0.00,,,0.00,TxWx,2013-02-01 07:24:00,
2013-02-01 02:29:00,19.0,11.0,29.49,SSW,202,10.0,16.0,74,0.00,,,0.00,TxWx,2013-02-01 07:29:00,
2013-02-01 02:34:00,20.0,12.0,29.49,SW,225,19.0,26.0,73,0.00,,,0.00,TxWx,2013-02-01 07:34:00,
2013-02-01 02:39:00,20.0,12.0,29.49,SSW,202,18.0,24.0,73,0.00,,,0.00,TxWx,2013-02-01 07:39:00,
2013-02-01 02:44:00,20.0,11.0,29.49,SW,225,8.0,11.0,71,0.00,,,0.00,TxWx,2013-02-01 07:44:00,
2013-02-01 02:50:00,20.0,11.0,29.49,SSW,202,12.0,16.0,71,0.00,,,0.00,TxWx,2013-02-01 07:50:00,
2013-02-01 02:55:00,20.0,11.0,29.49,SW,225,11.0,13.0,72,0.00,,,0.00,TxWx,2013-02-01 07:55:00,
2013-02-01 03:00:00,20.0,11.0,29.49,SSW,202,13.0,13.0,72,0.00,,,0.00,TxWx,2013-02-01 08:00:00,
2013-02-01 03:05:00,20.0,11.0,29.48,SSW,202,14.0,19.0,72,0.00,,,0.00,TxWx,2013-02-01 08:05:00,
2013-02-01 03:10:00,20.0,11.0,29.48,SSW,202,20.0,20.0,72,0.00,,,0.00,TxWx,2013-02-01 08:10:00,
2013-02-01 03:15:00,19.0,11.0,29.48,SW,225,15.0,15.0,72,0.00,,,0.00,TxWx,2013-02-01 08:15:00,
2013-02-01 03:20:00,19.0,10.0,29.49,SSW,202,17.0,19.0,72,0.00,,,0.00,TxWx,2013-02-01 08:20:00,
2013-02-01 03:25:00,19.0,10.0,29.48,SSW,202,19.0,21.0,72,0.00,,,0.00,TxWx,2013-02-01 08:25:00,
2013-02-01 03:30:00,19.0,10.0,29.49,SW,225,12.0,24.0,72,0.00,,,0.00,TxWx,2013-02-01 08:30:00,
2013-02-01 03:35:00,19.0,10.0,29.49,SW,225,15.0,18.0,72,0.00,,,0.00,TxWx,2013-02-01 08:35:00,
2013-02-01 03:40:00,19.0,10.0,29.49,SSW,202,13.0,13.0,71,0.00,,,0.00,TxWx,2013-02-01 08:40:00,
2013-02-01 03:45:00,19.0,10.0,29.49,SSW,202,17.0,17.0,71,0.00,,,0.00,TxWx,2013-02-01 08:45:00,
2013-02-01 03:51:00,19.0,10.0,29.49,SW,225,9.0,11.0,70,0.00,,,0.00,TxWx,2013-02-01 08:51:00,
2013-02-01 03:56:00,19.0,10.0,29.49,South,180,6.0,8.0,70,0.00,,,0.00,TxWx,2013-02-01 08:56:00,
2013-02-01 04:01:00,19.0,10.0,29.49,SW,225,11.0,13.0,70,0.00,,,0.00,TxWx,2013-02-01 09:01:00,
2013-02-01 04:06:00,19.0,9.0,29.49,SSW,202,7.0,8.0,69,0.00,,,0.00,TxWx,2013-02-01 09:06:00,
2013-02-01 04:11:00,19.0,9.0,29.49,ESE,112,10.0,12.0,68,0.00,,,0.00,TxWx,2013-02-01 09:11:00,
2013-02-01 04:16:00,19.0,9.0,29.49,SSW,202,8.0,11.0,68,0.00,,,0.00,TxWx,2013-02-01 09:16:00,
2013-02-01 04:22:00,19.0,9.0,29.49,SW,225,8.0,9.0,68,0.00,,,0.00,TxWx,2013-02-01 09:22:00,
2013-02-01 04:27:00,19.0,9.0,29.49,SSW,202,8.0,9.0,68,0.00,,,0.00,TxWx,2013-02-01 09:27:00,
2013-02-01 04:32:00,19.0,9.0,29.49,SW,225,14.0,14.0,67,0.00,,,0.00,TxWx,2013-02-01 09:32:00,
2013-02-01 04:37:00,19.0,9.0,29.49,SSW,202,8.0,13.0,66,0.00,,,0.00,TxWx,2013-02-01 09:37:00,
2013-02-01 04:42:00,19.0,8.0,29.49,SW,225,8.0,8.0,66,0.00,,,0.00,TxWx,2013-02-01 09:42:00,
2013-02-01 04:47:00,19.0,8.0,29.50,SSW,202,5.0,8.0,66,0.00,,,0.00,TxWx,2013-02-01 09:47:00,
2013-02-01 04:52:00,19.0,8.0,29.50,SW,225,8.0,10.0,66,0.00,,,0.00,TxWx,2013-02-01 09:52:00,
2013-02-01 04:57:00,19.0,8.0,29.50,SSW,202,9.0,11.0,65,0.00,,,0.00,TxWx,2013-02-01 09:57:00,
2013-02-01 05:02:00,19.0,8.0,29.50,WSW,247,9.0,9.0,65,0.00,,,0.00,TxWx,2013-02-01 10:02:00,
2013-02-01 05:07:00,19.0,8.0,29.50,SW,225,10.0,10.0,65,0.00,,,0.00,TxWx,2013-02-01 10:07:00,
2013-02-01 05:12:00,18.0,7.0,29.51,SW,225,8.0,9.0,65,0.00,,,0.00,TxWx,2013-02-01 10:12:00,
2013-02-01 05:17:00,19.0,7.0,29.51,SSW,202,14.0,14.0,65,0.00,,,0.00,TxWx,2013-02-01 10:17:00,
2013-02-01 05:22:00,19.0,8.0,29.50,SW,225,10.0,10.0,63,0.00,,,0.00,TxWx,2013-02-01 10:22:00,
2013-02-01 05:27:00,19.0,7.0,29.51,SW,225,7.0,10.0,63,0.00,,,0.00,TxWx,2013-02-01 10:27:00,
2013-02-01 05:32:00,19.0,7.0,29.51,SSW,202,7.0,10.0,63,0.00,,,0.00,TxWx,2013-02-01 10:32:00,
2013-02-01 05:38:00,18.0,6.0,29.51,SW,225,5.0,6.0,63,0.00,,,0.00,TxWx,2013-02-01 10:38:00,
2013-02-01 05:43:00,18.0,6.0,29.51,West,270,5.0,6.0,61,0.00,,,0.00,TxWx,2013-02-01 10:43:00,
2013-02-01 05:48:00,18.0,5.0,29.51,WSW,247,12.0,13.0,60,0.00,,,0.00,TxWx,2013-02-01 10:48:00,
2013-02-01 05:53:00,19.0,6.0,29.52,SW,225,11.0,14.0,60,0.00,,,0.00,TxWx,2013-02-01 10:53:00,
2013-02-01 05:58:00,18.0,5.0,29.52,SW,225,10.0,11.0,60,0.00,,,0.00,TxWx,2013-02-01 10:58:00,
2013-02-01 06:03:00,18.0,5.0,29.52,SW,225,13.0,13.0,59,0.00,,,0.00,TxWx,2013-02-01 11:03:00,
2013-02-01 06:08:00,18.0,5.0,29.52,SW,225,10.0,13.0,59,0.00,,,0.00,TxWx,2013-02-01 11:08:00,
2013-02-01 06:13:00,18.0,5.0,29.53,WSW,247,9.0,10.0,60,0.00,,,0.00,TxWx,2013-02-01 11:13:00,
2013-02-01 06:18:00,18.0,5.0,29.53,WSW,247,10.0,11.0,60,0.00,,,0.00,TxWx,2013-02-01 11:18:00,
2013-02-01 06:23:00,18.0,5.0,29.53,WSW,247,5.0,6.0,60,0.00,,,0.00,TxWx,2013-02-01 11:23:00,
2013-02-01 06:28:00,18.0,5.0,29.53,SW,225,5.0,7.0,60,0.00,,,0.00,TxWx,2013-02-01 11:28:00,
2013-02-01 06:33:00,18.0,5.0,29.53,SW,225,14.0,14.0,60,0.00,,,0.00,TxWx,2013-02-01 11:33:00,
2013-02-01 06:38:00,18.0,5.0,29.54,SW,225,7.0,10.0,60,0.00,,,0.00,TxWx,2013-02-01 11:38:00,
2013-02-01 06:43:00,18.0,5.0,29.54,WNW,292,9.0,9.0,60,0.00,,,0.00,TxWx,2013-02-01 11:43:00,
2013-02-01 06:44:00,17.0,7.0,29.76,WSW,247,8.0,10.0,67,0.00,,,0.00,TxWx,2013-02-01 11:44:00,
2013-02-01 06:45:00,17.0,7.0,29.76,WSW,247,14.0,19.0,67,0.00,,,0.00,TxWx,2013-02-01 11:45:00,
2013-02-01 06:46:00,17.0,7.0,29.76,SW,225,21.0,21.0,68,0.00,,,0.00,TxWx,2013-02-01 11:46:00,
2013-02-01 06:47:00,17.0,7.0,29.76,SW,225,16.0,19.0,68,0.00,,,0.00,TxWx,2013-02-01 11:47:00,
2013-02-01 06:48:00,17.0,7.0,29.76,SW,225,18.0,19.0,69,0.00,,,0.00,TxWx,2013-02-01 11:48:00,
2013-02-01 06:49:00,18.0,6.0,29.54,SSW,202,6.0,11.0,61,0.00,,,0.00,TxWx,2013-02-01 11:49:00,
2013-02-01 06:54:00,18.0,6.0,29.55,SW,225,20.0,23.0,61,0.00,,,0.00,TxWx,2013-02-01 11:54:00,
2013-02-01 06:59:00,18.0,5.0,29.55,SW,225,24.0,24.0,60,0.00,,,0.00,TxWx,2013-02-01 11:59:00,
2013-02-01 07:04:00,18.0,6.0,29.55,SW,225,14.0,18.0,61,0.00,,,0.00,TxWx,2013-02-01 12:04:00,
2013-02-01 07:09:00,18.0,6.0,29.55,SW,225,6.0,6.0,62,0.00,,,0.00,TxWx,2013-02-01 12:09:00,
2013-02-01 07:14:00,18.0,6.0,29.56,WSW,247,8.0,13.0,62,0.00,,,0.00,TxWx,2013-02-01 12:14:00,
2013-02-01 07:19:00,17.0,5.0,29.56,SW,225,9.0,18.0,63,0.00,,,0.00,TxWx,2013-02-01 12:19:00,
2013-02-01 07:24:00,17.0,5.0,29.57,SW,225,17.0,23.0,62,0.00,,,0.00,TxWx,2013-02-01 12:24:00,
2013-02-01 07:29:00,17.0,5.0,29.57,SW,225,14.0,18.0,62,0.00,,,0.00,TxWx,2013-02-01 12:29:00,
2013-02-01 07:34:00,17.0,5.0,29.57,WSW,247,8.0,8.0,63,0.00,,,0.00,TxWx,2013-02-01 12:34:00,
2013-02-01 07:40:00,17.0,7.0,29.57,SW,225,10.0,13.0,63,0.00,,,0.00,TxWx,2013-02-01 12:40:00,
2013-02-01 07:45:00,17.0,6.0,29.58,WSW,247,9.0,9.0,63,0.00,,,0.00,TxWx,2013-02-01 12:45:00,
2013-02-01 07:50:00,17.0,5.0,29.58,SW,225,8.0,12.0,63,0.00,,,0.00,TxWx,2013-02-01 12:50:00,
2013-02-01 07:55:00,18.0,6.0,29.59,West,270,10.0,14.0,63,0.00,,,0.00,TxWx,2013-02-01 12:55:00,
2013-02-01 08:00:00,17.0,6.0,29.59,SW,225,9.0,9.0,63,0.00,,,0.00,TxWx,2013-02-01 13:00:00,
2013-02-01 08:05:00,17.0,6.0,29.59,SW,225,7.0,11.0,64,0.00,,,0.00,TxWx,2013-02-01 13:05:00,
2013-02-01 08:10:00,17.0,6.0,29.60,SW,225,12.0,13.0,64,0.00,,,0.00,TxWx,2013-02-01 13:10:00,
2013-02-01 08:15:00,17.0,6.0,29.60,West,270,6.0,10.0,64,0.00,,,0.00,TxWx,2013-02-01 13:15:00,
2013-02-01 08:20:00,17.0,6.0,29.60,SW,225,11.0,12.0,64,0.00,,,0.00,TxWx,2013-02-01 13:20:00,
2013-02-01 08:25:00,17.0,6.0,29.61,WSW,247,10.0,12.0,64,0.00,,,0.00,TxWx,2013-02-01 13:25:00,
2013-02-01 08:30:00,18.0,7.0,29.61,SW,225,11.0,13.0,64,0.00,,,0.00,TxWx,2013-02-01 13:30:00,
2013-02-01 08:36:00,18.0,7.0,29.61,SW,225,6.0,8.0,64,0.00,,,0.00,TxWx,2013-02-01 13:36:00,
2013-02-01 08:41:00,18.0,7.0,29.61,SW,225,8.0,11.0,64,0.00,,,0.00,TxWx,2013-02-01 13:41:00,
2013-02-01 08:46:00,18.0,7.0,29.61,South,180,13.0,14.0,64,0.00,,,0.00,TxWx,2013-02-01 13:46:00,
2013-02-01 08:51:00,18.0,7.0,29.61,SW,225,16.0,19.0,64,0.00,,,0.00,TxWx,2013-02-01 13:51:00,
2013-02-01 08:56:00,18.0,8.0,29.61,SW,225,17.0,17.0,64,0.00,,,0.00,TxWx,2013-02-01 13:56:00,
2013-02-01 09:01:00,19.0,8.0,29.62,West,270,9.0,11.0,64,0.00,,,0.00,TxWx,2013-02-01 14:01:00,
2013-02-01 09:06:00,18.0,7.0,29.62,SW,225,10.0,17.0,63,0.00,,,0.00,TxWx,2013-02-01 14:06:00,
2013-02-01 09:11:00,18.0,7.0,29.62,WSW,247,6.0,10.0,64,0.00,,,0.00,TxWx,2013-02-01 14:11:00,
2013-02-01 09:16:00,19.0,8.0,29.62,SW,225,8.0,13.0,65,0.00,,,0.00,TxWx,2013-02-01 14:16:00,
2013-02-01 09:21:00,19.0,8.0,29.62,SW,225,15.0,19.0,65,0.00,,,0.00,TxWx,2013-02-01 14:21:00,
2013-02-01 09:26:00,19.0,7.0,29.63,SW,225,10.0,16.0,66,0.00,,,0.00,TxWx,2013-02-01 14:26:00,
2013-02-01 09:32:00,19.0,9.0,29.63,WSW,247,13.0,19.0,67,0.00,,,0.00,TxWx,2013-02-01 14:32:00,
2013-02-01 09:37:00,18.0,8.0,29.63,SW,225,15.0,18.0,67,0.00,,,0.00,TxWx,2013-02-01 14:37:00,
2013-02-01 09:42:00,18.0,8.0,29.63,West,270,14.0,14.0,67,0.00,,,0.00,TxWx,2013-02-01 14:42:00,
2013-02-01 09:47:00,19.0,9.0,29.64,SW,225,9.0,10.0,68,0.00,,,0.00,TxWx,2013-02-01 14:47:00,
2013-02-01 09:52:00,19.0,9.0,29.64,SW,225,12.0,12.0,68,0.00,,,0.00,TxWx,2013-02-01 14:52:00,
2013-02-01 09:57:00,19.0,9.0,29.64,SSW,202,5.0,14.0,68,0.00,,,0.00,TxWx,2013-02-01 14:57:00,
2013-02-01 10:02:00,19.0,9.0,29.64,SSW,202,6.0,10.0,68,0.00,,,0.00,TxWx,2013-02-01 15:02:00,
2013-02-01 10:07:00,19.0,9.0,29.64,West,270,12.0,14.0,68,0.00,,,0.00,TxWx,2013-02-01 15:07:00,
2013-02-01 10:12:00,19.0,8.0,29.64,West,270,10.0,17.0,67,0.00,,,0.00,TxWx,2013-02-01 15:12:00,
2013-02-01 10:17:00,19.0,9.0,29.64,West,270,8.0,11.0,67,0.00,,,0.00,TxWx,2013-02-01 15:17:00,
2013-02-01 10:22:00,19.0,9.0,29.65,West,270,10.0,11.0,68,0.00,,,0.00,TxWx,2013-02-01 15:22:00,
2013-02-01 10:27:00,19.0,9.0,29.64,WSW,247,6.0,10.0,68,0.00,,,0.00,TxWx,2013-02-01 15:27:00,
2013-02-01 10:33:00,19.0,9.0,29.65,SW,225,10.0,10.0,68,0.00,,,0.00,TxWx,2013-02-01 15:33:00,
2013-02-01 10:38:00,19.0,10.0,29.65,West,270,11.0,14.0,69,0.00,,,0.00,TxWx,2013-02-01 15:38:00,
2013-02-01 10:43:00,18.0,10.0,29.65,WNW,292,6.0,13.0,70,0.00,,,0.00,TxWx,2013-02-01 15:43:00,
2013-02-01 10:48:00,19.0,11.0,29.65,WSW,247,15.0,17.0,75,0.00,,,0.00,TxWx,2013-02-01 15:48:00,
2013-02-01 10:53:00,18.0,11.0,29.65,West,270,11.0,11.0,79,0.00,,,0.00,TxWx,2013-02-01 15:53:00,
2013-02-01 10:58:00,18.0,12.0,29.65,SW,225,14.0,14.0,82,0.00,,,0.00,TxWx,2013-02-01 15:58:00,
2013-02-01 11:03:00,17.0,11.0,29.65,WSW,247,8.0,9.0,82,0.00,,,0.00,TxWx,2013-02-01 16:03:00,
2013-02-01 11:08:00,18.0,12.0,29.65,West,270,13.0,15.0,79,0.00,,,0.00,TxWx,2013-02-01 16:08:00,
2013-02-01 11:13:00,18.0,11.0,29.65,WNW,292,7.0,11.0,77,0.00,,,0.00,TxWx,2013-02-01 16:13:00,
2013-02-01 11:18:00,18.0,11.0,29.65,West,270,11.0,13.0,76,0.00,,,0.00,TxWx,2013-02-01 16:18:00,
2013-02-01 11:23:00,18.0,11.0,29.66,SW,225,7.0,10.0,76,0.00,,,0.00,TxWx,2013-02-01 16:23:00,
2013-02-01 11:28:00,18.0,11.0,29.66,West,270,5.0,7.0,77,0.00,,,0.00,TxWx,2013-02-01 16:28:00,
2013-02-01 11:33:00,18.0,10.0,29.65,West,270,10.0,10.0,75,0.00,,,0.00,TxWx,2013-02-01 16:33:00,
2013-02-01 11:39:00,19.0,11.0,29.65,West,270,8.0,8.0,75,0.00,,,0.00,TxWx,2013-02-01 16:39:00,
2013-02-01 11:44:00,19.0,11.0,29.65,WNW,292,10.0,13.0,73,0.00,,,0.00,TxWx,2013-02-01 16:44:00,
2013-02-01 11:49:00,19.0,10.0,29.65,WSW,247,13.0,16.0,70,0.00,,,0.00,TxWx,2013-02-01 16:49:00,
2013-02-01 11:54:00,20.0,9.0,29.64,West,270,16.0,24.0,64,0.00,,,0.00,TxWx,2013-02-01 16:54:00,
2013-02-01 11:59:00,19.0,7.0,29.64,WSW,247,14.0,18.0,62,0.00,,,0.00,TxWx,2013-02-01 16:59:00,
2013-02-01 12:04:00,20.0,8.0,29.64,SW,225,13.0,15.0,63,0.00,,,0.00,TxWx,2013-02-01 17:04:00,
2013-02-01 12:09:00,20.0,8.0,29.64,WSW,247,7.0,14.0,61,0.00,,,0.00,TxWx,2013-02-01 17:09:00,
2013-02-01 12:14:00,20.0,8.0,29.64,WSW,247,14.0,18.0,61,0.00,,,0.00,TxWx,2013-02-01 17:14:00,
2013-02-01 12:19:00,21.0,8.0,29.64,WSW,247,16.0,20.0,58,0.00,,,0.00,TxWx,2013-02-01 17:19:00,
2013-02-01 12:24:00,20.0,5.0,29.64,West,270,17.0,25.0,55,0.00,,,0.00,TxWx,2013-02-01 17:24:00,
2013-02-01 12:29:00,19.0,4.0,29.64,WSW,247,23.0,28.0,55,0.00,,,0.00,TxWx,2013-02-01 17:29:00,
2013-02-01 12:35:00,20.0,6.0,29.64,West,270,21.0,26.0,57,0.00,,,0.00,TxWx,2013-02-01 17:35:00,
2013-02-01 12:40:00,20.0,6.0,29.64,WSW,247,11.0,11.0,57,0.00,,,0.00,TxWx,2013-02-01 17:40:00,
2013-02-01 12:45:00,20.0,6.0,29.64,SW,225,10.0,16.0,57,0.00,,,0.00,TxWx,2013-02-01 17:45:00,
2013-02-01 12:50:00,21.0,8.0,29.65,SW,225,14.0,14.0,58,0.00,,,0.00,TxWx,2013-02-01 17:50:00,
2013-02-01 12:55:00,20.0,6.0,29.65,SW,225,13.0,25.0,57,0.00,,,0.00,TxWx,2013-02-01 17:55:00,
2013-02-01 13:00:00,20.0,7.0,29.64,West,270,8.0,16.0,58,0.00,,,0.00,TxWx,2013-02-01 18:00:00,
2013-02-01 13:05:00,19.0,5.0,29.64,WNW,292,18.0,21.0,57,0.00,,,0.00,TxWx,2013-02-01 18:05:00,
2013-02-01 13:10:00,19.0,5.0,29.64,SW,225,26.0,32.0,58,0.00,,,0.00,TxWx,2013-02-01 18:10:00,
2013-02-01 13:15:00,19.0,6.0,29.65,West,270,14.0,18.0,59,0.00,,,0.00,TxWx,2013-02-01 18:15:00,
2013-02-01 13:20:00,19.0,6.0,29.65,WSW,247,10.0,14.0,59,0.00,,,0.00,TxWx,2013-02-01 18:20:00,
2013-02-01 13:25:00,19.0,6.0,29.64,WSW,247,15.0,19.0,59,0.00,,,0.00,TxWx,2013-02-01 18:25:00,
2013-02-01 13:30:00,20.0,7.0,29.65,SW,225,17.0,17.0,59,0.00,,,0.00,TxWx,2013-02-01 18:30:00,
2013-02-01 13:35:00,20.0,7.0,29.65,SW,225,12.0,14.0,59,0.00,,,0.00,TxWx,2013-02-01 18:35:00,
2013-02-01 13:41:00,20.0,7.0,29.65,SW,225,14.0,19.0,60,0.00,,,0.00,TxWx,2013-02-01 18:41:00,
2013-02-01 13:46:00,20.0,6.0,29.66,West,270,14.0,16.0,58,0.00,,,0.00,TxWx,2013-02-01 18:46:00,
2013-02-01 13:51:00,20.0,7.0,29.66,SW,225,12.0,17.0,59,0.00,,,0.00,TxWx,2013-02-01 18:51:00,
2013-02-01 13:56:00,20.0,7.0,29.66,SW,225,14.0,14.0,59,0.00,,,0.00,TxWx,2013-02-01 18:56:00,
2013-02-01 13:59:00,13.0,8.0,29.94,West,270,9.0,14.0,84,0.00,,,0.00,TxWx,2013-02-01 18:59:00,
2013-02-01 14:00:00,13.0,8.0,29.94,WNW,292,16.0,19.0,84,0.00,,,0.00,TxWx,2013-02-01 19:00:00,
2013-02-01 14:01:00,20.0,7.0,29.66,West,270,10.0,16.0,58,0.00,,,0.00,TxWx,2013-02-01 19:01:00,
2013-02-01 14:02:00,13.0,7.0,29.94,West,270,16.0,19.0,81,0.00,,,0.00,TxWx,2013-02-01 19:02:00,
2013-02-01 14:03:00,13.0,7.0,29.94,West,270,8.0,12.0,80,0.00,,,0.00,TxWx,2013-02-01 19:03:00,
2013-02-01 14:06:00,20.0,7.0,29.66,SW,225,14.0,18.0,58,0.00,,,0.00,TxWx,2013-02-01 19:06:00,
2013-02-01 14:11:00,19.0,5.0,29.66,WNW,292,11.0,21.0,58,0.00,,,0.00,TxWx,2013-02-01 19:11:00,
2013-02-01 14:16:00,20.0,7.0,29.67,SW,225,10.0,17.0,59,0.00,,,0.00,TxWx,2013-02-01 19:16:00,
2013-02-01 14:21:00,20.0,5.0,29.67,SW,225,14.0,21.0,57,0.00,,,0.00,TxWx,2013-02-01 19:21:00,
2013-02-01 14:25:00,13.0,5.0,29.94,SW,225,11.0,15.0,72,0.00,,,0.00,TxWx,2013-02-01 19:25:00,
2013-02-01 14:26:00,19.0,6.0,29.67,WSW,247,14.0,14.0,58,0.00,,,0.00,TxWx,2013-02-01 19:26:00,
2013-02-01 14:27:00,12.0,5.0,29.94,SSW,202,11.0,14.0,71,0.00,,,0.00,TxWx,2013-02-01 19:27:00,
2013-02-01 14:28:00,13.0,5.0,29.94,WSW,247,13.0,17.0,72,0.00,,,0.00,TxWx,2013-02-01 19:28:00,
2013-02-01 14:29:00,13.0,4.0,29.94,West,270,9.0,23.0,71,0.00,,,0.00,TxWx,2013-02-01 19:29:00,
2013-02-01 14:31:00,19.0,6.0,29.67,West,270,10.0,14.0,59,0.00,,,0.00,TxWx,2013-02-01 19:31:00,
2013-02-01 14:32:00,12.0,3.0,29.94,West,270,10.0,10.0,71,0.00,,,0.00,TxWx,2013-02-01 19:32:00,
2013-02-01 14:33:00,12.0,3.0,29.94,West,270,11.0,11.0,71,0.00,,,0.00,TxWx,2013-02-01 19:33:00,
2013-02-01 14:34:00,12.0,3.0,29.94,WSW,247,10.0,11.0,71,0.00,,,0.00,TxWx,2013-02-01 19:34:00,
2013-02-01 14:35:00,12.0,3.0,29.95,WNW,292,8.0,8.0,71,0.00,,,0.00,TxWx,2013-02-01 19:35:00,
2013-02-01 14:36:00,19.0,6.0,29.68,SW,225,18.0,20.0,60,0.00,,,0.00,TxWx,2013-02-01 19:36:00,
2013-02-01 14:41:00,19.0,5.0,29.68,West,270,14.0,16.0,58,0.00,,,0.00,TxWx,2013-02-01 19:41:00,
2013-02-01 14:47:00,19.0,5.0,29.68,West,270,14.0,17.0,57,0.00,,,0.00,TxWx,2013-02-01 19:47:00,
2013-02-01 14:52:00,19.0,5.0,29.68,West,270,19.0,19.0,58,0.00,,,0.00,TxWx,2013-02-01 19:52:00,
2013-02-01 14:55:00,12.0,3.0,29.95,WSW,247,6.0,9.0,70,0.00,,,0.00,TxWx,2013-02-01 19:55:00,
2013-02-01 14:56:00,12.0,3.0,29.95,West,270,6.0,8.0,70,0.00,,,0.00,TxWx,2013-02-01 19:56:00,
2013-02-01 14:57:00,19.0,6.0,29.69,WNW,292,11.0,23.0,59,0.00,,,0.00,TxWx,2013-02-01 19:57:00,
2013-02-01 14:58:00,12.0,3.0,29.95,WSW,247,8.0,10.0,70,0.00,,,0.00,TxWx,2013-02-01 19:58:00,
2013-02-01 15:02:00,19.0,6.0,29.69,West,270,13.0,14.0,58,0.00,,,0.00,TxWx,2013-02-01 20:02:00,
2013-02-01 15:07:00,19.0,6.0,29.70,WSW,247,6.0,11.0,59,0.00,,,0.00,TxWx,2013-02-01 20:07:00,
2013-02-01 15:12:00,18.0,5.0,29.70,West,270,14.0,25.0,59,0.00,,,0.00,TxWx,2013-02-01 20:12:00,
2013-02-01 15:17:00,19.0,6.0,29.70,WSW,247,21.0,29.0,60,0.00,,,0.00,TxWx,2013-02-01 20:17:00,
2013-02-01 15:22:00,18.0,6.0,29.70,SW,225,15.0,20.0,60,0.00,,,0.00,TxWx,2013-02-01 20:22:00,
2013-02-01 15:27:00,19.0,6.0,29.71,SW,225,18.0,18.0,60,0.00,,,0.00,TxWx,2013-02-01 20:27:00,
2013-02-01 15:32:00,19.0,6.0,29.71,WSW,247,10.0,15.0,60,0.00,,,0.00,TxWx,2013-02-01 20:32:00,
2013-02-01 15:37:00,18.0,5.0,29.71,NW,315,16.0,19.0,59,0.00,,,0.00,TxWx,2013-02-01 20:37:00,
2013-02-01 15:42:00,19.0,6.0,29.71,WNW,292,5.0,10.0,59,0.00,,,0.00,TxWx,2013-02-01 20:42:00,
2013-02-01 15:48:00,17.0,4.0,29.72,West,270,20.0,25.0,58,0.00,,,0.00,TxWx,2013-02-01 20:48:00,
2013-02-01 15:53:00,19.0,6.0,29.72,WSW,247,8.0,20.0,59,0.00,,,0.00,TxWx,2013-02-01 20:53:00,
2013-02-01 15:58:00,18.0,5.0,29.73,West,270,12.0,16.0,59,0.00,,,0.00,TxWx,2013-02-01 20:58:00,
2013-02-01 16:03:00,18.0,5.0,29.73,NW,315,14.0,21.0,59,0.00,,,0.00,TxWx,2013-02-01 21:03:00,
2013-02-01 16:08:00,18.0,5.0,29.73,West,270,12.0,16.0,60,0.00,,,0.00,TxWx,2013-02-01 21:08:00,
2013-02-01 16:13:00,18.0,5.0,29.74,WSW,247,18.0,19.0,60,0.00,,,0.00,TxWx,2013-02-01 21:13:00,
2013-02-01 16:18:00,18.0,5.0,29.74,West,270,14.0,16.0,60,0.00,,,0.00,TxWx,2013-02-01 21:18:00,
2013-02-01 16:23:00,18.0,5.0,29.75,SW,225,11.0,11.0,59,0.00,,,0.00,TxWx,2013-02-01 21:23:00,
2013-02-01 16:28:00,18.0,5.0,29.75,West,270,10.0,16.0,58,0.00,,,0.00,TxWx,2013-02-01 21:28:00,
2013-02-01 16:33:00,18.0,5.0,29.75,WSW,247,11.0,15.0,58,0.00,,,0.00,TxWx,2013-02-01 21:33:00,
2013-02-01 16:38:00,18.0,6.0,29.76,SW,225,10.0,23.0,61,0.00,,,0.00,TxWx,2013-02-01 21:38:00,
2013-02-01 16:43:00,17.0,7.0,29.76,SSW,202,18.0,18.0,66,0.00,,,0.00,TxWx,2013-02-01 21:43:00,
2013-02-01 16:48:00,17.0,8.0,29.76,SW,225,17.0,17.0,69,0.00,,,0.00,TxWx,2013-02-01 21:48:00,
2013-02-01 16:54:00,17.0,8.0,29.77,SW,225,19.0,23.0,70,0.00,,,0.00,TxWx,2013-02-01 21:54:00,
2013-02-01 16:59:00,17.0,7.0,29.77,SW,225,7.0,12.0,71,0.00,,,0.00,TxWx,2013-02-01 21:59:00,
2013-02-01 17:04:00,17.0,8.0,29.78,WNW,292,10.0,11.0,70,0.00,,,0.00,TxWx,2013-02-01 22:04:00,
2013-02-01 17:05:00,10.0,1.0,29.98,WSW,247,4.0,5.0,70,0.00,,,0.00,TxWx,2013-02-01 22:05:00,
2013-02-01 17:06:00,10.0,1.0,29.98,SW,225,5.0,6.0,70,0.00,,,0.00,TxWx,2013-02-01 22:06:00,
2013-02-01 17:07:00,10.0,1.0,29.98,WSW,247,5.0,5.0,70,0.00,,,0.00,TxWx,2013-02-01 22:07:00,
2013-02-01 17:08:00,10.0,1.0,29.98,NW,315,8.0,8.0,70,0.00,,,0.00,TxWx,2013-02-01 22:08:00,
2013-02-01 17:09:00,17.0,8.0,29.78,SW,225,11.0,18.0,69,0.00,,,0.00,TxWx,2013-02-01 22:09:00,
2013-02-01 17:14:00,17.0,7.0,29.78,SW,225,8.0,11.0,69,0.00,,,0.00,TxWx,2013-02-01 22:14:00,
2013-02-01 17:19:00,16.0,7.0,29.78,West,270,13.0,14.0,68,0.00,,,0.00,TxWx,2013-02-01 22:19:00,
2013-02-01 17:24:00,17.0,7.0,29.79,WSW,247,10.0,11.0,68,0.00,,,0.00,TxWx,2013-02-01 22:24:00,
2013-02-01 17:29:00,17.0,6.0,29.79,West,270,6.0,19.0,65,0.00,,,0.00,TxWx,2013-02-01 22:29:00,
2013-02-01 17:34:00,17.0,6.0,29.79,WSW,247,11.0,11.0,64,0.00,,,0.00,TxWx,2013-02-01 22:34:00,
2013-02-01 17:39:00,17.0,5.0,29.80,West,270,9.0,14.0,62,0.00,,,0.00,TxWx,2013-02-01 22:39:00,
2013-02-01 17:44:00,16.0,4.0,29.80,SSW,202,14.0,15.0,62,0.00,,,0.00,TxWx,2013-02-01 22:44:00,
2013-02-01 17:49:00,16.0,4.0,29.81,WSW,247,12.0,12.0,62,0.00,,,0.00,TxWx,2013-02-01 22:49:00,
2013-02-01 17:55:00,16.0,4.0,29.81,WSW,247,5.0,6.0,62,0.00,,,0.00,TxWx,2013-02-01 22:55:00,
2013-02-01 18:00:00,16.0,4.0,29.81,SW,225,12.0,13.0,62,0.00,,,0.00,TxWx,2013-02-01 23:00:00,
2013-02-01 18:05:00,16.0,4.0,29.82,WSW,247,14.0,16.0,62,0.00,,,0.00,TxWx,2013-02-01 23:05:00,
2013-02-01 18:10:00,16.0,4.0,29.82,SW,225,7.0,14.0,62,0.00,,,0.00,TxWx,2013-02-01 23:10:00,
2013-02-01 18:15:00,16.0,5.0,29.82,WSW,247,8.0,11.0,63,0.00,,,0.00,TxWx,2013-02-01 23:15:00,
2013-02-01 18:20:00,16.0,5.0,29.83,West,270,9.0,11.0,64,0.00,,,0.00,TxWx,2013-02-01 23:20:00,
2013-02-01 18:25:00,16.0,4.0,29.83,WSW,247,9.0,10.0,64,0.00,,,0.00,TxWx,2013-02-01 23:25:00,
2013-02-01 18:30:00,16.0,5.0,29.83,WSW,247,10.0,19.0,64,0.00,,,0.00,TxWx,2013-02-01 23:30:00,
2013-02-01 18:35:00,16.0,5.0,29.83,West,270,6.0,8.0,64,0.00,,,0.00,TxWx,2013-02-01 23:35:00,
2013-02-01 18:40:00,15.0,4.0,29.84,West,270,10.0,11.0,65,0.00,,,0.00,TxWx,2013-02-01 23:40:00,
2013-02-01 18:45:00,15.0,4.0,29.84,West,270,5.0,8.0,65,0.00,,,0.00,TxWx,2013-02-01 23:45:00,
2013-02-01 18:50:00,15.0,4.0,29.84,WSW,247,4.0,5.0,65,0.00,,,0.00,TxWx,2013-02-01 23:50:00,
2013-02-01 18:55:00,15.0,5.0,29.84,SW,225,7.0,9.0,66,0.00,,,0.00,TxWx,2013-02-01 23:55:00,
2013-02-01 19:00:00,10.0,2.0,29.97,SW,225,5.0,6.0,73,0.00,,,0.00,TxWx,2013-02-02 00:00:00,
2013-02-01 19:01:00,15.0,5.0,29.84,SSW,202,11.0,12.0,66,0.00,,,0.00,TxWx,2013-02-02 00:01:00,
2013-02-01 19:02:00,10.0,2.0,29.97,WSW,247,5.0,6.0,73,0.00,,,0.00,TxWx,2013-02-02 00:02:00,
2013-02-01 19:03:00,10.0,2.0,29.97,WSW,247,3.0,3.0,73,0.00,,,0.00,TxWx,2013-02-02 00:03:00,
2013-02-01 19:04:00,10.0,2.0,29.97,West,270,4.0,5.0,73,0.00,,,0.00,TxWx,2013-02-02 00:04:00,
2013-02-01 19:06:00,15.0,5.0,29.84,WSW,247,12.0,13.0,66,0.00,,,0.00,TxWx,2013-02-02 00:06:00,
2013-02-01 19:11:00,15.0,5.0,29.84,West,270,8.0,15.0,67,0.00,,,0.00,TxWx,2013-02-02 00:11:00,
2013-02-01 19:16:00,15.0,5.0,29.85,SW,225,10.0,10.0,67,0.00,,,0.00,TxWx,2013-02-02 00:16:00,
2013-02-01 19:21:00,15.0,5.0,29.85,WSW,247,8.0,10.0,68,0.00,,,0.00,TxWx,2013-02-02 00:21:00,
2013-02-01 19:26:00,15.0,5.0,29.85,SW,225,6.0,10.0,68,0.00,,,0.00,TxWx,2013-02-02 00:26:00,
2013-02-01 19:31:00,15.0,6.0,29.85,SW,225,14.0,18.0,69,0.00,,,0.00,TxWx,2013-02-02 00:31:00,
2013-02-01 19:36:00,15.0,6.0,29.86,WSW,247,6.0,9.0,69,0.00,,,0.00,TxWx,2013-02-02 00:36:00,
2013-02-01 19:41:00,15.0,6.0,29.85,WSW,247,6.0,10.0,70,0.00,,,0.00,TxWx,2013-02-02 00:41:00,
2013-02-01 19:46:00,15.0,6.0,29.86,West,270,8.0,12.0,70,0.00,,,0.00,TxWx,2013-02-02 00:46:00,
2013-02-01 19:51:00,15.0,6.0,29.86,West,270,6.0,7.0,70,0.00,,,0.00,TxWx,2013-02-02 00:51:00,
2013-02-01 19:56:00,15.0,6.0,29.86,WSW,247,5.0,5.0,71,0.00,,,0.00,TxWx,2013-02-02 00:56:00,
2013-02-01 20:01:00,15.0,6.0,29.86,West,270,4.0,5.0,72,0.00,,,0.00,TxWx,2013-02-02 01:01:00,
2013-02-01 20:07:00,15.0,7.0,29.86,SW,225,9.0,10.0,72,0.00,,,0.00,TxWx,2013-02-02 01:07:00,
2013-02-01 20:12:00,15.0,7.0,29.86,South,180,3.0,6.0,73,0.00,,,0.00,TxWx,2013-02-02 01:12:00,
2013-02-01 20:17:00,15.0,7.0,29.87,WSW,247,5.0,6.0,74,0.00,,,0.00,TxWx,2013-02-02 01:17:00,
2013-02-01 20:22:00,15.0,8.0,29.86,SW,225,7.0,8.0,75,0.00,,,0.00,TxWx,2013-02-02 01:22:00,
2013-02-01 20:27:00,15.0,8.0,29.87,West,270,5.0,6.0,76,0.00,,,0.00,TxWx,2013-02-02 01:27:00,
2013-02-01 20:32:00,15.0,8.0,29.87,SW,225,6.0,6.0,76,0.00,,,0.00,TxWx,2013-02-02 01:32:00,
2013-02-01 20:37:00,15.0,8.0,29.87,SW,225,4.0,5.0,77,0.00,,,0.00,TxWx,2013-02-02 01:37:00,
2013-02-01 20:42:00,15.0,8.0,29.87,NNW,337,5.0,6.0,78,0.00,,,0.00,TxWx,2013-02-02 01:42:00,
2013-02-01 20:47:00,15.0,8.0,29.87,SSW,202,6.0,6.0,78,0.00,,,0.00,TxWx,2013-02-02 01:47:00,
2013-02-01 20:52:00,15.0,9.0,29.87,SSW,202,11.0,13.0,79,0.00,,,0.00,TxWx,2013-02-02 01:52:00,
2013-02-01 20:57:00,15.0,9.0,29.87,SW,225,12.0,12.0,80,0.00,,,0.00,TxWx,2013-02-02 01:57:00,
2013-02-01 21:02:00,15.0,9.0,29.87,SW,225,13.0,13.0,81,0.00,,,0.00,TxWx,2013-02-02 02:02:00,
2013-02-01 21:07:00,15.0,9.0,29.88,SW,225,3.0,5.0,82,0.00,,,0.00,TxWx,2013-02-02 02:07:00,
2013-02-01 21:12:00,15.0,10.0,29.88,SW,225,10.0,10.0,82,0.00,,,0.00,TxWx,2013-02-02 02:12:00,
2013-02-01 21:18:00,15.0,10.0,29.88,SW,225,10.0,11.0,85,0.00,,,0.00,TxWx,2013-02-02 02:18:00,
2013-02-01 21:23:00,14.0,10.0,29.88,SW,225,6.0,6.0,86,0.00,,,0.00,TxWx,2013-02-02 02:23:00,
2013-02-01 21:28:00,14.0,10.0,29.88,SW,225,7.0,8.0,88,0.00,,,0.00,TxWx,2013-02-02 02:28:00,
2013-02-01 21:33:00,15.0,11.0,29.89,WSW,247,5.0,6.0,88,0.00,,,0.00,TxWx,2013-02-02 02:33:00,
2013-02-01 21:38:00,15.0,11.0,29.89,SW,225,2.0,3.0,89,0.00,,,0.00,TxWx,2013-02-02 02:38:00,
2013-02-01 21:43:00,15.0,11.0,29.89,SW,225,5.0,8.0,89,0.00,,,0.00,TxWx,2013-02-02 02:43:00,
2013-02-01 21:48:00,14.0,10.0,29.89,WNW,292,6.0,7.0,90,0.00,,,0.00,TxWx,2013-02-02 02:48:00,
2013-02-01 21:53:00,15.0,12.0,29.89,SW,225,10.0,11.0,90,0.00,,,0.00,TxWx,2013-02-02 02:53:00,
2013-02-01 21:58:00,14.0,11.0,29.88,SW,225,11.0,11.0,91,0.00,,,0.00,TxWx,2013-02-02 02:58:00,
2013-02-01 22:03:00,14.0,11.0,29.89,SW,225,12.0,18.0,91,0.00,,,0.00,TxWx,2013-02-02 03:03:00,
2013-02-01 22:08:00,15.0,12.0,29.88,WSW,247,6.0,8.0,91,0.00,,,0.00,TxWx,2013-02-02 03:08:00,
2013-02-01 22:13:00,15.0,12.0,29.89,WSW,247,13.0,13.0,91,0.00,,,0.00,TxWx,2013-02-02 03:13:00,
2013-02-01 22:19:00,15.0,11.0,29.89,SW,225,10.0,10.0,90,0.00,,,0.00,TxWx,2013-02-02 03:19:00,
2013-02-01 22:24:00,15.0,11.0,29.89,SW,225,8.0,13.0,88,0.00,,,0.00,TxWx,2013-02-02 03:24:00,
2013-02-01 22:29:00,15.0,11.0,29.89,SW,225,13.0,13.0,86,0.00,,,0.00,TxWx,2013-02-02 03:29:00,
2013-02-01 22:34:00,15.0,10.0,29.89,SW,225,16.0,16.0,87,0.00,,,0.00,TxWx,2013-02-02 03:34:00,
2013-02-01 22:39:00,14.0,10.0,29.89,SW,225,7.0,7.0,89,0.00,,,0.00,TxWx,2013-02-02 03:39:00,
2013-02-01 22:44:00,14.0,11.0,29.90,West,270,10.0,10.0,91,0.00,,,0.00,TxWx,2013-02-02 03:44:00,
2013-02-01 22:49:00,14.0,11.0,29.90,WSW,247,6.0,7.0,92,0.00,,,0.00,TxWx,2013-02-02 03:49:00,
2013-02-01 22:54:00,14.0,11.0,29.91,WNW,292,5.0,5.0,93,0.00,,,0.00,TxWx,2013-02-02 03:54:00,
2013-02-01 22:59:00,14.0,12.0,29.91,West,270,5.0,6.0,94,0.00,,,0.00,TxWx,2013-02-02 03:59:00,
2013-02-01 23:04:00,14.0,12.0,29.91,WNW,292,8.0,10.0,95,0.00,,,0.00,TxWx,2013-02-02 04:04:00,
2013-02-01 23:09:00,13.0,11.0,29.92,SW,225,10.0,12.0,95,0.00,,,0.00,TxWx,2013-02-02 04:09:00,
2013-02-01 23:14:00,13.0,11.0,29.92,WSW,247,8.0,10.0,95,0.00,,,0.00,TxWx,2013-02-02 04:14:00,
2013-02-01 23:19:00,13.0,11.0,29.92,West,270,10.0,17.0,95,0.00,,,0.00,TxWx,2013-02-02 04:19:00,
2013-02-01 23:24:00,13.0,10.0,29.92,West,270,11.0,13.0,94,0.00,,,0.00,TxWx,2013-02-02 04:24:00,
2013-02-01 23:30:00,13.0,10.0,29.92,SSW,202,3.0,5.0,92,0.00,,,0.00,TxWx,2013-02-02 04:30:00,
2013-02-01 23:35:00,13.0,10.0,29.93,West,270,6.0,8.0,90,0.00,,,0.00,TxWx,2013-02-02 04:35:00,
2013-02-01 23:40:00,13.0,9.0,29.93,WSW,247,10.0,11.0,89,0.00,,,0.00,TxWx,2013-02-02 04:40:00,
2013-02-01 23:45:00,13.0,9.0,29.93,West,270,6.0,8.0,88,0.00,,,0.00,TxWx,2013-02-02 04:45:00,
2013-02-01 23:50:00,13.0,9.0,29.94,West,270,8.0,9.0,87,0.00,,,0.00,TxWx,2013-02-02 04:50:00,
2013-02-01 23:55:00,13.0,8.0,29.94,SW,225,7.0,10.0,86,0.00,,,0.00,TxWx,2013-02-02 04:55:00,